createdAt,value
2017-09-05T00:02:12.623Z,11.70
2017-09-05T00:04:40.136Z,11.70
2017-09-05T00:07:07.670Z,11.60
2017-09-05T00:09:35.190Z,11.70
2017-09-05T00:12:04.494Z,11.80
2017-09-05T00:14:41.891Z,11.80
2017-09-05T00:17:10.315Z,11.80
2017-09-05T00:19:40.385Z,11.70
2017-09-05T00:22:11.527Z,11.70
2017-09-05T00:24:39.024Z,11.80
2017-09-05T00:27:06.563Z,11.60
2017-09-05T00:29:34.105Z,11.70
2017-09-05T00:32:01.635Z,11.70
2017-09-05T00:34:29.121Z,11.70
2017-09-05T00:36:56.666Z,11.60
2017-09-05T00:39:24.181Z,11.60
2017-09-05T00:41:53.052Z,11.60
2017-09-05T00:44:20.554Z,11.60
2017-09-05T00:46:48.067Z,11.60
2017-09-05T00:49:15.594Z,11.60
2017-09-05T00:51:43.114Z,11.50
2017-09-05T00:54:10.643Z,11.60
2017-09-05T00:56:38.166Z,11.50
2017-09-05T00:59:05.692Z,11.50
2017-09-05T01:01:33.197Z,11.60
2017-09-05T01:04:00.746Z,11.60
2017-09-05T01:06:28.255Z,11.50
2017-09-05T01:08:55.779Z,11.50
2017-09-05T01:11:23.284Z,11.50
2017-09-05T01:13:50.844Z,11.40
2017-09-05T01:16:18.360Z,11.50
2017-09-05T01:18:45.901Z,11.50
2017-09-05T01:21:13.419Z,11.40
2017-09-05T01:23:40.951Z,11.40
2017-09-05T01:26:08.474Z,11.30
2017-09-05T01:28:35.993Z,11.40
2017-09-05T01:31:03.501Z,11.40
2017-09-05T01:33:31.040Z,11.40
2017-09-05T01:35:58.544Z,11.40
2017-09-05T01:38:26.063Z,11.40
2017-09-05T01:40:53.573Z,11.30
2017-09-05T01:43:21.991Z,11.20
2017-09-05T01:45:49.530Z,11.20
2017-09-05T01:48:17.051Z,11.20
2017-09-05T01:50:44.577Z,11.10
2017-09-05T01:53:12.091Z,11.10
2017-09-05T01:55:39.612Z,11.00
2017-09-05T01:58:07.123Z,11.00
2017-09-05T02:00:34.639Z,11.10
2017-09-05T02:03:02.143Z,11.00
2017-09-05T02:05:29.753Z,10.90
2017-09-05T02:07:57.253Z,10.90
2017-09-05T02:10:24.773Z,10.70
2017-09-05T02:12:52.254Z,10.80
2017-09-05T02:15:19.785Z,10.80
2017-09-05T02:17:47.278Z,10.90
2017-09-05T02:20:14.804Z,11.00
2017-09-05T02:22:42.294Z,10.90
2017-09-05T02:25:09.811Z,10.80
2017-09-05T02:27:37.359Z,10.90
2017-09-05T02:30:04.870Z,10.90
2017-09-05T02:32:32.383Z,11.00
2017-09-05T02:34:59.896Z,10.90
2017-09-05T02:37:27.405Z,10.80
2017-09-05T02:39:54.935Z,10.90
2017-09-05T02:42:22.447Z,10.90
2017-09-05T02:44:49.951Z,10.80
2017-09-05T02:47:17.464Z,10.70
2017-09-05T02:49:44.997Z,10.70
2017-09-05T02:52:12.522Z,10.80
2017-09-05T02:54:40.011Z,10.80
2017-09-05T02:57:07.532Z,10.70
2017-09-05T02:59:35.041Z,10.80
2017-09-05T03:02:02.561Z,10.70
2017-09-05T03:04:30.083Z,10.80
2017-09-05T03:06:57.619Z,10.80
2017-09-05T03:09:25.158Z,10.70
2017-09-05T03:11:52.664Z,10.80
2017-09-05T03:14:20.186Z,10.70
2017-09-05T03:16:47.678Z,10.60
2017-09-05T03:19:15.254Z,10.60
2017-09-05T03:21:42.775Z,10.60
2017-09-05T03:24:10.306Z,10.60
2017-09-05T03:26:37.820Z,10.50
2017-09-05T03:29:05.509Z,10.60
2017-09-05T03:31:33.024Z,10.60
2017-09-05T03:34:00.784Z,10.60
2017-09-05T03:36:28.294Z,10.50
2017-09-05T03:38:55.827Z,10.40
2017-09-05T03:41:23.348Z,10.50
2017-09-05T03:43:50.899Z,10.50
2017-09-05T03:46:18.451Z,10.50
2017-09-05T03:48:45.944Z,10.50
2017-09-05T03:51:13.500Z,10.50
2017-09-05T03:53:41.087Z,10.50
2017-09-05T03:56:08.607Z,10.30
2017-09-05T03:58:36.171Z,10.40
2017-09-05T04:01:03.730Z,10.50
2017-09-05T04:03:31.297Z,10.50
2017-09-05T04:05:58.855Z,10.50
2017-09-05T04:08:26.384Z,10.40
2017-09-05T04:10:53.931Z,10.40
2017-09-05T04:13:21.444Z,10.40
2017-09-05T04:15:49.018Z,10.40
2017-09-05T04:18:16.563Z,10.40
2017-09-05T04:20:44.121Z,10.50
2017-09-05T04:23:11.669Z,10.30
2017-09-05T04:25:39.220Z,10.30
2017-09-05T04:28:06.791Z,10.40
2017-09-05T04:30:34.311Z,10.30
2017-09-05T04:33:01.868Z,10.30
2017-09-05T04:35:29.369Z,10.30
2017-09-05T04:37:56.921Z,10.20
2017-09-05T04:40:24.476Z,10.20
2017-09-05T04:42:52.028Z,10.40
2017-09-05T04:45:19.563Z,10.40
2017-09-05T04:47:47.115Z,10.40
2017-09-05T04:50:14.649Z,10.40
2017-09-05T04:52:42.192Z,10.40
2017-09-05T04:55:09.726Z,10.40
2017-09-05T04:57:37.299Z,10.40
2017-09-05T05:00:04.861Z,10.50
2017-09-05T05:02:32.436Z,10.50
2017-09-05T05:04:59.997Z,10.40
2017-09-05T05:07:27.513Z,10.50
2017-09-05T05:09:55.049Z,10.60
2017-09-05T05:12:22.607Z,10.60
2017-09-05T05:14:50.119Z,10.60
2017-09-05T05:17:17.652Z,10.70
2017-09-05T05:19:45.207Z,10.80
2017-09-05T05:22:12.739Z,10.90
2017-09-05T05:24:40.286Z,10.90
2017-09-05T05:27:08.798Z,10.90
2017-09-05T05:29:36.328Z,10.90
2017-09-05T05:32:03.900Z,10.90
2017-09-05T05:34:31.471Z,11.00
2017-09-05T05:36:59.001Z,10.90
2017-09-05T05:39:26.539Z,10.90
2017-09-05T05:41:54.087Z,11.00
2017-09-05T05:44:21.639Z,11.00
2017-09-05T05:46:49.147Z,11.00
2017-09-05T05:49:16.701Z,11.00
2017-09-05T05:51:44.203Z,11.00
2017-09-05T05:54:11.721Z,11.00
2017-09-05T05:56:39.281Z,11.00
2017-09-05T05:59:06.782Z,11.10
2017-09-05T06:01:34.335Z,11.20
2017-09-05T06:04:01.859Z,11.20
2017-09-05T06:06:29.448Z,11.20
2017-09-05T06:08:56.949Z,11.30
2017-09-05T06:11:24.471Z,11.40
2017-09-05T06:13:51.992Z,11.40
2017-09-05T06:16:19.516Z,11.50
2017-09-05T06:18:47.040Z,11.50
2017-09-05T06:21:14.575Z,11.60
2017-09-05T06:23:42.151Z,11.70
2017-09-05T06:26:09.722Z,11.70
2017-09-05T06:28:37.256Z,11.80
2017-09-05T06:31:04.805Z,11.90
2017-09-05T06:33:32.321Z,12.00
2017-09-05T06:35:59.876Z,12.00
2017-09-05T06:38:27.412Z,12.10
2017-09-05T06:40:54.948Z,12.20
2017-09-05T06:43:22.478Z,12.30
2017-09-05T06:45:50.047Z,12.30
2017-09-05T06:48:17.567Z,12.40
2017-09-05T06:50:45.125Z,12.50
2017-09-05T06:53:12.673Z,12.60
2017-09-05T06:55:40.177Z,12.70
2017-09-05T06:58:07.700Z,12.80
2017-09-05T07:00:35.212Z,12.90
2017-09-05T07:03:02.736Z,13.00
2017-09-05T07:05:30.259Z,13.10
2017-09-05T07:07:57.772Z,13.10
2017-09-05T07:10:25.275Z,13.30
2017-09-05T07:12:52.841Z,13.40
2017-09-05T07:15:20.347Z,13.50
2017-09-05T07:17:47.883Z,13.60
2017-09-05T07:20:15.380Z,13.70
2017-09-05T07:22:42.943Z,13.70
2017-09-05T07:25:10.522Z,13.80
2017-09-05T07:27:38.020Z,13.90
2017-09-05T07:30:05.543Z,14.00
2017-09-05T07:32:33.063Z,14.20
2017-09-05T07:35:00.615Z,14.20
2017-09-05T07:37:28.114Z,14.30
2017-09-05T07:39:55.640Z,14.40
2017-09-05T07:42:23.176Z,14.40
2017-09-05T07:44:50.762Z,14.40
2017-09-05T07:47:18.249Z,14.60
2017-09-05T07:49:45.779Z,14.70
2017-09-05T07:52:13.333Z,14.80
2017-09-05T07:54:40.890Z,15.00
2017-09-05T07:57:08.384Z,15.10
2017-09-05T07:59:35.881Z,15.20
2017-09-05T08:02:03.410Z,15.30
2017-09-05T08:04:30.935Z,15.40
2017-09-05T08:06:58.451Z,15.50
2017-09-05T08:09:25.958Z,15.50
2017-09-05T08:11:53.494Z,15.70
2017-09-05T08:14:21.003Z,15.70
2017-09-05T08:16:48.514Z,15.80
2017-09-05T08:19:16.014Z,15.90
2017-09-05T08:21:43.569Z,16.00
2017-09-05T08:24:11.090Z,16.00
2017-09-05T08:26:38.630Z,16.10
2017-09-05T08:29:06.220Z,16.20
2017-09-05T08:31:33.773Z,16.30
2017-09-05T08:34:01.290Z,16.30
2017-09-05T08:36:28.802Z,16.40
2017-09-05T08:38:56.312Z,16.40
2017-09-05T08:41:23.823Z,16.60
2017-09-05T08:43:51.316Z,16.70
2017-09-05T08:46:18.838Z,16.80
2017-09-05T08:48:46.354Z,16.90
2017-09-05T08:51:13.908Z,17.00
2017-09-05T08:53:41.447Z,17.10
2017-09-05T08:56:08.981Z,17.20
2017-09-05T08:58:36.515Z,17.30
2017-09-05T09:01:04.032Z,17.40
2017-09-05T09:03:31.553Z,17.50
2017-09-05T09:05:59.069Z,17.70
2017-09-05T09:08:26.612Z,17.80
2017-09-05T09:10:54.127Z,17.90
2017-09-05T09:13:21.688Z,18.00
2017-09-05T09:15:49.215Z,18.10
2017-09-05T09:18:16.848Z,18.20
2017-09-05T09:20:44.393Z,18.30
2017-09-05T09:23:11.928Z,18.40
2017-09-05T09:25:39.437Z,18.50
2017-09-05T09:28:06.970Z,18.60
2017-09-05T09:30:34.478Z,18.60
2017-09-05T09:33:02.005Z,18.70
2017-09-05T09:35:29.535Z,18.80
2017-09-05T09:37:57.056Z,18.90
2017-09-05T09:40:24.599Z,19.00
2017-09-05T09:42:52.117Z,19.20
2017-09-05T09:45:19.644Z,19.20
2017-09-05T09:47:47.164Z,19.40
2017-09-05T09:50:14.688Z,19.40
2017-09-05T09:52:42.210Z,19.50
2017-09-05T09:55:09.765Z,19.50
2017-09-05T09:57:37.327Z,19.60
2017-09-05T10:00:04.848Z,19.70
2017-09-05T10:02:32.437Z,19.70
2017-09-05T10:05:00.004Z,19.70
2017-09-05T10:07:27.566Z,19.80
2017-09-05T10:09:55.082Z,19.90
2017-09-05T10:12:22.599Z,20.00
2017-09-05T10:14:50.105Z,20.10
2017-09-05T10:17:17.650Z,20.20
2017-09-05T10:19:45.210Z,20.20
2017-09-05T10:22:12.745Z,20.30
2017-09-05T10:24:40.243Z,20.30
2017-09-05T10:27:07.786Z,20.30
2017-09-05T10:29:35.330Z,20.30
2017-09-05T10:32:02.911Z,20.30
2017-09-05T10:34:30.413Z,20.40
2017-09-05T10:36:57.961Z,20.40
2017-09-05T10:39:25.470Z,20.50
2017-09-05T10:41:52.994Z,20.60
2017-09-05T10:44:20.494Z,20.60
2017-09-05T10:46:48.006Z,20.60
2017-09-05T10:49:15.539Z,20.70
2017-09-05T10:51:43.086Z,20.80
2017-09-05T10:54:10.589Z,20.90
2017-09-05T10:56:38.127Z,21.00
2017-09-05T10:59:05.641Z,21.10
2017-09-05T11:01:33.208Z,21.20
2017-09-05T11:04:00.725Z,21.30
2017-09-05T11:06:28.256Z,21.30
2017-09-05T11:08:55.782Z,21.50
2017-09-05T11:11:23.295Z,21.70
2017-09-05T11:13:50.801Z,21.70
2017-09-05T11:16:18.314Z,21.90
2017-09-05T11:18:45.857Z,22.10
2017-09-05T11:21:13.411Z,22.30
2017-09-05T11:23:40.911Z,22.40
2017-09-05T11:26:08.455Z,22.50
2017-09-05T11:28:35.988Z,22.60
2017-09-05T11:31:03.556Z,22.70
2017-09-05T11:33:31.064Z,22.70
2017-09-05T11:35:58.585Z,22.70
2017-09-05T11:38:26.130Z,22.70
2017-09-05T11:40:53.702Z,22.70
2017-09-05T11:43:21.257Z,22.70
2017-09-05T11:45:48.792Z,22.70
2017-09-05T11:48:16.317Z,22.70
2017-09-05T11:50:43.839Z,22.60
2017-09-05T11:53:11.365Z,22.60
2017-09-05T11:55:38.867Z,22.50
2017-09-05T11:58:06.498Z,22.50
2017-09-05T12:00:34.035Z,22.40
2017-09-05T12:03:01.591Z,22.30
2017-09-05T12:05:29.092Z,22.20
2017-09-05T12:07:56.996Z,22.10
2017-09-05T12:10:24.523Z,22.00
2017-09-05T12:12:52.076Z,22.00
2017-09-05T12:15:19.657Z,22.00
2017-09-05T12:17:47.231Z,22.00
2017-09-05T12:20:14.772Z,22.00
2017-09-05T12:22:42.356Z,22.00
2017-09-05T12:25:09.884Z,22.00
2017-09-05T12:27:37.412Z,22.00
2017-09-05T12:30:04.953Z,22.20
2017-09-05T12:32:32.508Z,22.20
2017-09-05T12:35:00.035Z,22.30
2017-09-05T12:37:27.547Z,22.30
2017-09-05T12:39:55.085Z,22.30
2017-09-05T12:42:22.604Z,22.40
2017-09-05T12:44:50.135Z,22.30
2017-09-05T12:47:17.667Z,22.40
2017-09-05T12:49:45.235Z,22.50
2017-09-05T12:52:12.789Z,22.60
2017-09-05T12:54:40.318Z,22.70
2017-09-05T12:57:07.879Z,22.80
2017-09-05T12:59:35.458Z,22.90
2017-09-05T13:02:03.007Z,23.00
2017-09-05T13:04:30.551Z,23.10
2017-09-05T13:06:58.070Z,23.30
2017-09-05T13:09:25.603Z,23.40
2017-09-05T13:11:53.118Z,23.50
2017-09-05T13:14:20.617Z,23.50
2017-09-05T13:16:48.133Z,23.60
2017-09-05T13:19:15.708Z,23.70
2017-09-05T13:21:43.206Z,23.70
2017-09-05T13:24:10.707Z,23.80
2017-09-05T13:26:38.201Z,23.70
2017-09-05T13:29:05.710Z,23.60
2017-09-05T13:31:33.244Z,23.40
2017-09-05T13:34:00.804Z,23.30
2017-09-05T13:36:28.295Z,23.20
2017-09-05T13:38:55.850Z,23.20
2017-09-05T13:41:23.359Z,23.20
2017-09-05T13:43:50.869Z,23.20
2017-09-05T13:46:18.359Z,23.30
2017-09-05T13:48:45.878Z,23.40
2017-09-05T13:51:13.382Z,23.40
2017-09-05T13:53:40.931Z,23.40
2017-09-05T13:56:08.455Z,23.30
2017-09-05T13:58:35.962Z,23.30
2017-09-05T14:01:03.488Z,23.20
2017-09-05T14:03:30.983Z,23.10
2017-09-05T14:05:58.502Z,23.10
2017-09-05T14:08:26.005Z,23.10
2017-09-05T14:10:53.546Z,23.10
2017-09-05T14:13:21.044Z,23.10
2017-09-05T14:15:48.571Z,23.10
2017-09-05T14:18:16.072Z,23.00
2017-09-05T14:20:43.588Z,23.00
2017-09-05T14:23:11.090Z,23.00
2017-09-05T14:25:38.591Z,23.00
2017-09-05T14:28:06.113Z,23.00
2017-09-05T14:30:33.623Z,23.00
2017-09-05T14:33:01.155Z,23.00
2017-09-05T14:35:28.680Z,22.90
2017-09-05T14:37:56.171Z,23.00
2017-09-05T14:40:23.702Z,22.90
2017-09-05T14:42:51.200Z,22.80
2017-09-05T14:45:18.707Z,22.80
2017-09-05T14:47:46.217Z,22.80
2017-09-05T14:50:13.724Z,22.90
2017-09-05T14:52:41.305Z,22.80
2017-09-05T14:55:09.593Z,22.90
2017-09-05T14:57:37.146Z,22.90
2017-09-05T15:00:04.666Z,22.90
2017-09-05T15:02:32.184Z,22.80
2017-09-05T15:04:59.716Z,22.80
2017-09-05T15:07:27.251Z,22.80
2017-09-05T15:09:54.762Z,22.80
2017-09-05T15:12:22.269Z,22.80
2017-09-05T15:14:49.784Z,22.80
2017-09-05T15:17:17.333Z,22.80
2017-09-05T15:19:44.842Z,22.70
2017-09-05T15:22:12.373Z,22.70
2017-09-05T15:24:39.872Z,22.80
2017-09-05T15:27:07.388Z,22.80
2017-09-05T15:29:34.903Z,22.80
2017-09-05T15:32:02.450Z,22.90
2017-09-05T15:34:29.970Z,22.80
2017-09-05T15:36:57.531Z,22.80
2017-09-05T15:39:25.046Z,22.80
2017-09-05T15:41:52.572Z,22.70
2017-09-05T15:44:20.101Z,22.70
2017-09-05T15:46:47.601Z,22.70
2017-09-05T15:49:15.105Z,22.70
2017-09-05T15:51:42.594Z,22.70
2017-09-05T15:54:10.095Z,22.60
2017-09-05T15:56:37.625Z,22.60
2017-09-05T15:59:05.124Z,22.60
2017-09-05T16:01:32.640Z,22.60
2017-09-05T16:04:00.262Z,22.60
2017-09-05T16:06:27.806Z,22.50
2017-09-05T16:08:55.320Z,22.40
2017-09-05T16:11:22.862Z,22.40
2017-09-05T16:13:50.800Z,22.40
2017-09-05T16:16:18.428Z,22.30
2017-09-05T16:18:45.951Z,22.20
2017-09-05T16:21:14.261Z,22.20
2017-09-05T16:23:41.916Z,22.20
2017-09-05T16:26:09.435Z,22.20
2017-09-05T16:28:37.028Z,22.10
2017-09-05T16:31:04.522Z,22.00
2017-09-05T16:33:32.103Z,22.00
2017-09-05T16:35:59.647Z,21.90
2017-09-05T16:38:27.156Z,21.90
2017-09-05T16:40:54.794Z,21.90
2017-09-05T16:43:22.332Z,21.90
2017-09-05T16:45:50.232Z,21.90
2017-09-05T16:48:18.072Z,21.90
2017-09-05T16:50:45.648Z,21.90
2017-09-05T16:53:13.295Z,21.90
2017-09-05T16:55:40.855Z,21.90
2017-09-05T16:58:08.362Z,21.90
2017-09-05T17:00:35.912Z,21.80
2017-09-05T17:03:03.481Z,21.80
2017-09-05T17:05:31.062Z,21.80
2017-09-05T17:07:58.632Z,21.80
2017-09-05T17:10:26.144Z,21.80
2017-09-05T17:12:53.688Z,21.80
2017-09-05T17:15:21.212Z,21.70
2017-09-05T17:17:48.865Z,21.70
2017-09-05T17:20:16.381Z,21.70
2017-09-05T17:22:43.929Z,21.70
2017-09-05T17:25:11.496Z,21.60
2017-09-05T17:27:39.061Z,21.70
2017-09-05T17:30:06.643Z,21.60
2017-09-05T17:32:34.268Z,21.60
2017-09-05T17:35:01.900Z,21.60
2017-09-05T17:37:29.469Z,21.50
2017-09-05T17:39:56.969Z,21.50
2017-09-05T17:42:24.721Z,21.40
2017-09-05T17:44:52.239Z,21.40
2017-09-05T17:47:20.264Z,21.30
2017-09-05T17:49:47.904Z,21.30
2017-09-05T17:52:15.512Z,21.30
2017-09-05T17:54:43.038Z,21.30
2017-09-05T17:57:10.573Z,21.20
2017-09-05T17:59:38.120Z,21.20
2017-09-05T18:02:05.652Z,21.20
2017-09-05T18:04:33.171Z,21.20
2017-09-05T18:07:00.780Z,21.20
2017-09-05T18:09:28.331Z,21.10
2017-09-05T18:11:55.958Z,21.10
2017-09-05T18:14:23.607Z,21.10
2017-09-05T18:16:51.223Z,21.10
2017-09-05T18:19:19.140Z,21.10
2017-09-05T18:21:47.550Z,21.00
2017-09-05T18:24:15.124Z,21.10
2017-09-05T18:26:42.796Z,21.00
2017-09-05T18:29:10.875Z,21.00
2017-09-05T18:31:38.473Z,21.00
2017-09-05T18:34:06.056Z,21.00
2017-09-05T18:36:33.651Z,21.00
2017-09-05T18:39:01.189Z,21.00
2017-09-05T18:41:28.747Z,20.90
2017-09-05T18:43:56.420Z,20.90
2017-09-05T18:46:23.978Z,20.90
2017-09-05T18:48:51.949Z,20.90
2017-09-05T18:51:19.459Z,20.90
2017-09-05T18:53:47.112Z,20.90
2017-09-05T18:56:14.636Z,20.80
2017-09-05T18:58:42.141Z,20.80
2017-09-05T19:01:09.689Z,20.80
2017-09-05T19:03:37.382Z,20.80
2017-09-05T19:06:05.372Z,20.80
2017-09-05T19:08:32.983Z,20.80
2017-09-05T19:11:00.536Z,20.80
2017-09-05T19:13:28.084Z,20.80
2017-09-05T19:15:55.685Z,20.80
2017-09-05T19:18:23.536Z,20.70
2017-09-05T19:20:51.149Z,20.70
2017-09-05T19:23:18.749Z,20.70
2017-09-05T19:25:46.354Z,20.70
2017-09-05T19:28:13.912Z,20.70
2017-09-05T19:33:19.016Z,20.70
2017-09-05T19:35:46.595Z,20.60
2017-09-05T19:38:14.694Z,20.60
2017-09-05T19:40:42.310Z,20.60
2017-09-05T19:43:09.856Z,20.60
2017-09-05T19:45:37.472Z,20.50
2017-09-05T19:48:05.154Z,20.50
2017-09-05T19:50:32.701Z,20.50
2017-09-05T19:53:00.272Z,20.50
2017-09-05T19:55:27.923Z,20.50
2017-09-05T19:57:55.543Z,20.40
2017-09-05T20:00:23.208Z,20.40
2017-09-05T20:02:50.761Z,20.40
2017-09-05T20:05:18.524Z,20.40
2017-09-05T20:07:46.073Z,20.40
2017-09-05T20:10:13.591Z,20.40
2017-09-05T20:12:41.130Z,20.40
2017-09-05T20:15:08.655Z,20.40
2017-09-05T20:17:36.264Z,20.40
2017-09-05T20:20:03.831Z,20.40
2017-09-05T20:22:31.378Z,20.40
2017-09-05T20:24:58.887Z,20.30
2017-09-05T20:27:26.804Z,20.30
2017-09-05T20:29:54.316Z,20.30
2017-09-05T20:32:21.913Z,20.30
2017-09-05T20:34:49.427Z,20.30
2017-09-05T20:37:17.000Z,20.30
2017-09-05T20:39:44.532Z,20.30
2017-09-05T20:42:12.058Z,20.20
2017-09-05T20:44:39.583Z,20.20
2017-09-05T20:47:07.106Z,20.20
2017-09-05T20:49:34.648Z,20.20
2017-09-05T20:52:02.222Z,20.20
2017-09-05T20:54:29.716Z,20.20
2017-09-05T20:56:57.294Z,20.10
2017-09-05T20:59:24.880Z,20.10
2017-09-05T21:01:52.428Z,20.00
2017-09-05T21:04:19.965Z,19.90
2017-09-05T21:06:47.460Z,19.90
2017-09-05T21:09:14.968Z,19.80
2017-09-05T21:11:48.422Z,19.80
2017-09-05T21:14:15.945Z,19.70
2017-09-05T21:16:43.562Z,19.60
2017-09-05T21:19:11.087Z,19.60
2017-09-05T21:21:39.222Z,19.50
2017-09-05T21:24:06.999Z,19.40
2017-09-05T21:26:34.528Z,19.40
2017-09-05T21:29:02.079Z,19.30
2017-09-05T21:31:29.709Z,19.20
2017-09-05T21:33:57.239Z,19.10
2017-09-05T21:36:24.756Z,19.10
2017-09-05T21:38:52.267Z,19.00
2017-09-05T21:41:19.803Z,19.00
2017-09-05T21:43:47.433Z,18.90
2017-09-05T21:46:14.962Z,18.80
2017-09-05T21:48:42.493Z,18.80
2017-09-05T21:51:10.003Z,18.70
2017-09-05T21:53:37.509Z,18.70
2017-09-05T21:56:05.055Z,18.70
2017-09-05T21:58:32.579Z,18.60
2017-09-05T22:01:00.143Z,18.60
2017-09-05T22:03:27.711Z,18.60
2017-09-05T22:05:55.254Z,18.60
2017-09-05T22:08:22.794Z,18.70
2017-09-05T22:10:50.317Z,18.70
2017-09-05T22:13:17.844Z,18.80
2017-09-05T22:15:45.379Z,18.80
2017-09-05T22:18:12.965Z,18.80
2017-09-05T22:20:46.153Z,18.80
2017-09-05T22:23:13.708Z,18.90
2017-09-05T22:28:47.561Z,19.00
2017-09-05T22:31:15.063Z,19.00
2017-09-05T22:33:42.574Z,19.00
2017-09-05T22:36:10.140Z,19.10
2017-09-05T22:38:37.693Z,19.10
2017-09-05T22:41:05.213Z,19.20
2017-09-05T22:43:32.728Z,19.20
2017-09-05T22:46:00.231Z,19.20
2017-09-05T22:48:27.770Z,19.30
2017-09-05T22:50:55.261Z,19.30
2017-09-05T22:53:22.860Z,19.30
2017-09-05T22:55:50.348Z,19.30
2017-09-05T22:58:17.886Z,19.30
2017-09-05T23:00:45.401Z,19.30
2017-09-05T23:03:12.925Z,19.30
2017-09-05T23:05:40.457Z,19.30
2017-09-05T23:08:07.951Z,19.30
2017-09-05T23:10:35.507Z,19.30
2017-09-05T23:13:03.031Z,19.30
2017-09-05T23:15:30.548Z,19.30
2017-09-05T23:17:58.103Z,19.30
2017-09-05T23:20:25.651Z,19.30
2017-09-05T23:22:53.198Z,19.30
2017-09-05T23:25:20.716Z,19.20
2017-09-05T23:27:48.243Z,19.20
2017-09-05T23:30:15.766Z,19.20
2017-09-05T23:32:43.260Z,19.20
2017-09-05T23:35:10.791Z,19.20
2017-09-05T23:37:38.301Z,19.20
2017-09-05T23:40:05.849Z,19.20
2017-09-05T23:42:34.052Z,19.20
2017-09-05T23:45:01.576Z,19.20
2017-09-05T23:47:29.125Z,19.10
2017-09-05T23:49:56.667Z,19.10
2017-09-05T23:52:24.209Z,19.10
2017-09-05T23:54:51.719Z,19.10
2017-09-05T23:57:19.229Z,19.20
2017-09-05T23:59:47.016Z,19.20
